Berlin, Wisconsin
Current Conditions -  °F | °C
As of 11:56 AM on Thursday 27 Nov 2014 (Local Time) from KY50 Reporting Station
Clear Clear  
Wind Chill:   Ceiling: Unl
Heat Index: 16°   Visibility: 10mi
Dew Point:   Wind: 7mph
Humidity: 68%   Direction: 330°NNW
Pressure: 30.38"   Gusts: NA
Location:  43.97°N, 88.95°W
Report Text: KY50 271756Z AUTO 33006KT 10SM CLR M09/M14 A3038 RMK AO2 TSNO 50004 T10881138 11083 21094 SLP298
Loading
Personal Weather Stations






























Interactive Weather Map New forecast layout! Learn more

10-Day Weather Forecast

Advertisements
Track Severe Weather on mobile